Weather History for Crestview, FL

Change the Weather History Date:

Sunday, December 22, 2013

  Actual Average Record
Temperature  
Mean Temperature 65 °F -  
Max Temperature 75 °F - - ()
Min Temperature 55 °F - - ()
Growing Degree Days 15 (Base 50)    
Moisture  
Dew Point 67 °F    
Average Humidity 97    
Maximum Humidity 100    
Minimum Humidity 88    
Precipitation  
Precipitation 1.08 in - - ()
Sea Level Pressure  
Sea Level Pressure 30.00 in    
Wind  
Wind Speed 15 mph (SSW)    
Max Wind Speed 21 mph    
Max Gust Speed 30 mph    
Visibility 9 miles    
Events Rain , Thunderstorm    
T = Trace of Precipitation, MM = Missing Value Source: NWS Daily Summary

Daily Weather History Graph

Daily Weather History Graph

Search for Another Location

Airport:

Trip Planner

Search our weather history database for the weather conditions in past years. The results will help you decide how hot, cold, wet, or windy it might be!

Date:

Astronomy

Dec. 22, 2013 Rise Set
Actual Time 6:39 AM CST 4:49 PM CST
Civil Twilight 6:13 AM CST 5:16 PM CST
Nautical Twilight 5:43 AM CST 5:46 PM CST
Astronomical Twilight 5:13 AM CST 6:15 PM CST
Moon 9:42 PM CST (12/22) 9:53 AM CST (12/22)
Length of Visible Light 11h 03m
Length of Day
10h 09m
Waning Gibbous, 76% of the Moon is Illuminated
Dec 22
Waning Gibbous
Dec 25
Last Quarter
Jan 1
New
Jan 7
First Quarter
Jan 15
Full

Hourly Weather History & Observations

Time (CST) Temp. Dew Point Humidity Pressure Visibility Wind Dir Wind Speed Gust Speed Precip Events Conditions
12:08 AM 71.6 °F 71.6 °F 100% 29.95 in 10.0 mi South 19.6 mph 28.8 mph N/A   Overcast
12:22 AM 71.6 °F 71.6 °F 100% 29.96 in 10.0 mi South 17.3 mph - N/A   Overcast
12:58 AM 72.1 °F 71.8 °F 99% 29.96 in 10.0 mi South 12.7 mph - N/A   Overcast
1:18 AM 71.6 °F 71.6 °F 100% 29.96 in 10.0 mi South 17.3 mph 25.3 mph N/A   Overcast
1:30 AM 71.6 °F 71.6 °F 100% 29.96 in 10.0 mi South 15.0 mph - N/A   Light Drizzle
1:58 AM 71.4 °F 71.2 °F 99% 29.95 in 9.0 mi SSE 16.1 mph 25.3 mph 0.00 in   Light Drizzle
2:02 AM 71.6 °F 71.6 °F 100% 29.94 in 10.0 mi SSE 19.6 mph 26.5 mph N/A   Overcast
2:58 AM 72.0 °F 71.6 °F 99% 29.95 in 10.0 mi South 16.1 mph 23.0 mph 0.00 in   Overcast
3:02 AM 71.6 °F 71.6 °F 100% 29.93 in 10.0 mi South 15.0 mph 23.0 mph N/A   Overcast
3:27 AM 71.6 °F 71.6 °F 100% 29.93 in 10.0 mi South 17.3 mph 25.3 mph N/A   Overcast
3:58 AM 72.1 °F 71.8 °F 99% 29.95 in 10.0 mi South 17.3 mph 23.0 mph N/A   Overcast
4:00 AM 71.6 °F 71.6 °F 100% 29.94 in 10.0 mi South 17.3 mph - N/A   Overcast
4:35 AM 71.6 °F 71.6 °F 100% 29.93 in 10.0 mi South 18.4 mph 25.3 mph N/A   Overcast
4:58 AM 72.1 °F 71.8 °F 99% 29.94 in 10.0 mi South 19.6 mph 23.0 mph N/A   Overcast
5:18 AM 71.6 °F 71.6 °F 100% 29.93 in 10.0 mi South 16.1 mph 24.2 mph N/A   Overcast
5:58 AM 72.0 °F 71.6 °F 99% 29.95 in 10.0 mi South 17.3 mph - N/A   Overcast
6:58 AM 72.1 °F 72.0 °F 99% 29.97 in 9.0 mi South 17.3 mph 26.5 mph N/A   Overcast
7:58 AM 72.9 °F 72.5 °F 99% 30.00 in 10.0 mi South 15.0 mph 21.9 mph N/A   Overcast
8:58 AM 73.8 °F 73.4 °F 99% 30.01 in 10.0 mi South 16.1 mph 23.0 mph N/A   Overcast
9:13 AM 73.4 °F 73.4 °F 100% 30.00 in 10.0 mi South 18.4 mph 25.3 mph N/A   Overcast
9:58 AM 73.9 °F 73.0 °F 97% 30.01 in 10.0 mi SSW 15.0 mph 20.7 mph N/A   Overcast
10:53 AM 75.2 °F 73.4 °F 94% 30.00 in 10.0 mi South 19.6 mph 29.9 mph N/A   Overcast
10:58 AM 74.7 °F 73.2 °F 95% 30.01 in 10.0 mi South 19.6 mph 29.9 mph N/A   Overcast
11:08 AM 75.2 °F 73.4 °F 94% 30.00 in 10.0 mi South 17.3 mph 29.9 mph N/A   Overcast
11:58 AM 74.5 °F 73.4 °F 96% 29.99 in 10.0 mi South 20.7 mph 28.8 mph N/A   Overcast
12:36 PM 75.2 °F 73.4 °F 94% 29.96 in 10.0 mi South 16.1 mph 26.5 mph N/A   Light Drizzle
12:46 PM 75.2 °F 73.4 °F 94% 29.96 in 9.0 mi South 17.3 mph 24.2 mph N/A   Light Drizzle
12:50 PM 75.2 °F 73.4 °F 94% 29.96 in 10.0 mi South 18.4 mph 24.2 mph N/A   Overcast
12:58 PM 74.7 °F 73.9 °F 98% 29.96 in 10.0 mi South 18.4 mph - 0.00 in   Mostly Cloudy
1:58 PM 74.8 °F 73.4 °F 95% 29.96 in 10.0 mi South 17.3 mph 25.3 mph N/A   Overcast
2:24 PM 75.2 °F 73.4 °F 94% 29.95 in 10.0 mi South 20.7 mph 28.8 mph N/A   Light Drizzle
2:38 PM 75.2 °F 73.4 °F 94% 29.95 in 10.0 mi South 17.3 mph 24.2 mph N/A   Mostly Cloudy
2:39 PM 75.2 °F 73.4 °F 94% 29.95 in 10.0 mi South 16.1 mph 24.2 mph N/A   Light Drizzle
2:58 PM 74.5 °F 73.2 °F 96% 29.96 in 10.0 mi South 17.3 mph 27.6 mph 0.00 in   Light Drizzle
3:01 PM 75.2 °F 73.4 °F 94% 29.95 in 10.0 mi South 15.0 mph 24.2 mph N/A   Mostly Cloudy
3:16 PM 75.2 °F 73.4 °F 94% 29.95 in 10.0 mi South 13.8 mph - N/A   Scattered Clouds
3:26 PM 75.2 °F 71.6 °F 89% 29.95 in 10.0 mi South 15.0 mph 21.9 mph N/A   Mostly Cloudy
3:31 PM 75.2 °F 71.6 °F 89% 29.95 in 10.0 mi South 15.0 mph 21.9 mph N/A   Mostly Cloudy
3:36 PM 75.2 °F 71.6 °F 89% 29.95 in 10.0 mi South 16.1 mph - N/A   Scattered Clouds
3:42 PM 75.2 °F 71.6 °F 89% 29.95 in 10.0 mi South 16.1 mph - N/A Rain Light Rain
3:50 PM 73.4 °F 71.6 °F 94% 29.96 in 10.0 mi South 12.7 mph - N/A   Scattered Clouds
3:58 PM 73.8 °F 72.3 °F 95% 29.96 in 10.0 mi South 15.0 mph - 0.00 in   Partly Cloudy
4:08 PM 73.4 °F 71.6 °F 94% 29.96 in 10.0 mi SSE 15.0 mph - N/A   Mostly Cloudy
4:13 PM 73.4 °F 71.6 °F 94% 29.96 in 10.0 mi SSE 15.0 mph - N/A   Mostly Cloudy
4:58 PM 72.9 °F 72.5 °F 99% 29.96 in 10.0 mi South 16.1 mph - N/A   Mostly Cloudy
5:49 PM 73.4 °F 71.6 °F 94% 29.97 in 9.0 mi South 13.8 mph - N/A Rain Rain
5:58 PM 72.9 °F 72.5 °F 99% 29.98 in 6.0 mi South 12.7 mph - 0.02 in Rain Rain
6:03 PM 73.4 °F 71.6 °F 94% 29.97 in 6.0 mi South 15.0 mph - N/A Rain Light Rain
6:08 PM 73.4 °F 71.6 °F 94% 29.97 in 9.0 mi South 17.3 mph 21.9 mph N/A Rain Light Rain
6:44 PM 73.4 °F 73.4 °F 100% 29.99 in 10.0 mi SSW 15.0 mph - N/A   Overcast
6:49 PM 73.4 °F 73.4 °F 100% 30.00 in 10.0 mi SW 16.1 mph 23.0 mph N/A   Overcast
6:50 PM 73.4 °F 73.4 °F 100% 30.01 in 10.0 mi West 13.8 mph 23.0 mph N/A   Overcast
6:58 PM 68.0 °F 64.4 °F 88% 30.03 in 10.0 mi NW 16.1 mph 21.9 mph 0.07 in   Overcast
7:00 PM 66.2 °F 62.6 °F 88% 30.04 in 10.0 mi WNW 13.8 mph 21.9 mph N/A Rain Light Rain
7:01 PM 66.2 °F 62.6 °F 88% 30.04 in 10.0 mi West 15.0 mph 21.9 mph N/A Rain Light Rain
7:11 PM 62.6 °F 62.6 °F 100% 30.05 in 8.0 mi NNW 12.7 mph 24.2 mph N/A Rain Light Rain
7:21 PM 60.8 °F 60.8 °F 100% 30.06 in 2.5 mi NW 13.8 mph - N/A Rain Heavy Rain
7:26 PM 60.8 °F 60.8 °F 100% 30.05 in 3.0 mi NW 15.0 mph - N/A Rain Light Rain
7:49 PM 60.8 °F 59.0 °F 94% 30.05 in 10.0 mi NNW 8.1 mph - N/A   Overcast
7:58 PM 60.8 °F 59.0 °F 94% 30.06 in 10.0 mi NNW 8.1 mph - 0.14 in   Overcast
8:03 PM 60.8 °F 59.0 °F 94% 30.05 in 10.0 mi North 10.4 mph - N/A   Mostly Cloudy
8:38 PM 59.0 °F 59.0 °F 100% 30.04 in 10.0 mi North 8.1 mph - N/A   Overcast
8:58 PM 59.5 °F 59.2 °F 99% 30.07 in 10.0 mi Variable 5.8 mph - N/A   Overcast
9:03 PM 59.0 °F 59.0 °F 100% 30.06 in 10.0 mi NNW 5.8 mph - N/A   Overcast
9:08 PM 59.0 °F 59.0 °F 100% 30.06 in 10.0 mi NNW 8.1 mph - N/A   Overcast
9:09 PM 59.0 °F 59.0 °F 100% 30.06 in 10.0 mi NNW 8.1 mph - N/A Rain Light Rain
9:38 PM 59.0 °F 59.0 °F 100% 30.06 in 4.0 mi North 9.2 mph - N/A Rain Light Rain
9:43 PM 59.0 °F 59.0 °F 100% 30.07 in 2.5 mi North 5.8 mph - N/A Rain Heavy Rain
9:48 PM 59.0 °F 59.0 °F 100% 30.07 in 2.0 mi North 5.8 mph - N/A Rain Heavy Rain
9:53 PM 59.0 °F 59.0 °F 100% 30.09 in 1.8 mi NW 6.9 mph - N/A Rain Heavy Rain
9:58 PM 59.0 °F 57.2 °F 94% 30.09 in 1.8 mi North 8.1 mph - 0.33 in Rain Heavy Rain
10:03 PM 57.2 °F 57.2 °F 100% 30.08 in 1.5 mi NNW 10.4 mph - N/A Rain Heavy Rain
10:13 PM 57.2 °F 57.2 °F 100% 30.07 in 5.0 mi North 8.1 mph - N/A Rain Rain
10:33 PM 57.2 °F 57.2 °F 100% 30.07 in 5.0 mi North 9.2 mph - N/A Rain , Thunderstorm Rain
10:38 PM 57.2 °F 57.2 °F 100% 30.08 in 5.0 mi NNW 6.9 mph - N/A Rain , Thunderstorm Rain
10:58 PM 56.3 °F 55.9 °F 99% 30.10 in 10.0 mi NNW 12.7 mph - 0.37 in Rain , Thunderstorm Light Rain
11:03 PM 55.4 °F 55.4 °F 100% 30.08 in 10.0 mi NNW 10.4 mph - N/A Rain , Thunderstorm Light Rain
11:23 PM 55.4 °F 53.6 °F 94% 30.08 in 6.0 mi North 9.2 mph - N/A Rain Light Rain
11:38 PM 55.4 °F 55.4 °F 100% 30.06 in 7.0 mi North 10.4 mph - N/A Rain Rain
11:53 PM 55.4 °F 55.4 °F 100% 30.07 in 10.0 mi NNW 9.2 mph - N/A Rain Light Rain
11:58 PM 55.0 °F 54.7 °F 99% 30.10 in 10.0 mi NNW 11.5 mph - 0.15 in Rain Light Rain